createdAt,value
2018-02-02T00:00:36.564Z,77.56
2018-02-02T00:03:05.204Z,77.51
2018-02-02T00:05:34.166Z,76.84
2018-02-02T00:08:04.307Z,77.51
2018-02-02T00:10:33.717Z,77.21
2018-02-02T00:13:01.266Z,76.38
2018-02-02T00:15:36.247Z,76.75
2018-02-02T00:18:03.729Z,76.42
2018-02-02T00:20:31.176Z,77.37
2018-02-02T00:22:58.645Z,76.80
2018-02-02T00:25:26.089Z,76.93
2018-02-02T00:27:53.602Z,77.61
2018-02-02T00:30:21.947Z,77.31
2018-02-02T00:32:49.392Z,76.72
2018-02-02T00:35:21.453Z,76.90
2018-02-02T00:37:48.886Z,77.00
2018-02-02T00:40:18.384Z,77.06
2018-02-02T00:42:45.878Z,76.74
2018-02-02T00:45:13.354Z,77.13
2018-02-02T00:47:40.813Z,77.29
2018-02-02T00:50:08.291Z,77.50
2018-02-02T00:52:35.760Z,77.59
2018-02-02T00:55:03.182Z,77.49
2018-02-02T00:57:30.810Z,77.80
2018-02-02T00:59:58.305Z,77.58
2018-02-02T01:02:25.744Z,77.42
2018-02-02T01:04:53.169Z,77.63
2018-02-02T01:07:20.610Z,77.00
2018-02-02T01:09:48.082Z,76.37
2018-02-02T01:12:15.620Z,76.78
2018-02-02T01:14:43.073Z,76.80
2018-02-02T01:17:10.592Z,76.67
2018-02-02T01:19:38.037Z,77.29
2018-02-02T01:22:05.467Z,76.99
2018-02-02T01:24:32.910Z,77.60
2018-02-02T01:27:00.337Z,77.08
2018-02-02T01:29:28.204Z,76.95
2018-02-02T01:31:55.833Z,77.56
2018-02-02T01:34:23.329Z,77.46
2018-02-02T01:36:50.765Z,76.62
2018-02-02T01:39:18.232Z,76.58
2018-02-02T01:41:45.708Z,76.78
2018-02-02T01:44:13.235Z,76.63
2018-02-02T01:46:40.674Z,76.75
2018-02-02T01:49:08.125Z,76.64
2018-02-02T01:51:35.719Z,77.03
2018-02-02T01:54:03.249Z,76.88
2018-02-02T01:56:30.686Z,76.63
2018-02-02T01:58:58.209Z,76.61
2018-02-02T02:01:25.749Z,76.38
2018-02-02T02:03:53.198Z,76.71
2018-02-02T02:06:20.813Z,76.15
2018-02-02T02:08:48.286Z,76.07
2018-02-02T02:11:15.829Z,76.36
2018-02-02T02:13:43.349Z,76.87
2018-02-02T02:16:11.103Z,77.70
2018-02-02T02:18:38.526Z,77.36
2018-02-02T02:21:05.992Z,76.41
2018-02-02T02:23:33.553Z,76.76
2018-02-02T02:26:01.256Z,77.11
2018-02-02T02:28:28.781Z,76.31
2018-02-02T02:30:56.332Z,76.31
2018-02-02T02:33:23.894Z,76.55
2018-02-02T02:35:51.410Z,77.09
2018-02-02T02:38:18.844Z,77.04
2018-02-02T02:40:46.422Z,76.92
2018-02-02T02:43:13.893Z,76.23
2018-02-02T02:45:41.344Z,76.51
2018-02-02T02:48:08.760Z,76.60
2018-02-02T02:50:36.257Z,77.02
2018-02-02T02:53:03.747Z,76.47
2018-02-02T02:55:31.193Z,76.93
2018-02-02T02:57:58.701Z,77.01
2018-02-02T03:00:26.290Z,75.98
2018-02-02T03:02:53.720Z,77.45
2018-02-02T03:05:21.161Z,76.95
2018-02-02T03:07:49.689Z,77.76
2018-02-02T03:10:21.038Z,77.27
2018-02-02T03:12:56.852Z,76.74
2018-02-02T03:15:25.261Z,77.18
2018-02-02T03:17:52.704Z,77.75
2018-02-02T03:20:20.121Z,77.09
2018-02-02T03:22:48.222Z,76.80
2018-02-02T03:25:15.688Z,76.52
2018-02-02T03:27:43.121Z,76.82
2018-02-02T03:30:10.548Z,77.30
2018-02-02T03:32:38.064Z,76.44
2018-02-02T03:35:05.773Z,76.40
2018-02-02T03:37:33.242Z,76.52
2018-02-02T03:40:01.626Z,76.78
2018-02-02T03:42:29.077Z,76.12
2018-02-02T03:44:56.540Z,76.04
2018-02-02T03:47:23.975Z,76.99
2018-02-02T03:49:51.451Z,76.64
2018-02-02T03:52:18.894Z,76.22
2018-02-02T03:54:46.351Z,76.09
2018-02-02T03:57:13.827Z,76.85
2018-02-02T03:59:43.306Z,76.94
2018-02-02T04:02:10.874Z,76.16
2018-02-02T04:04:39.387Z,77.17
2018-02-02T04:07:06.884Z,77.41
2018-02-02T04:09:34.370Z,77.62
2018-02-02T04:12:01.841Z,77.17
2018-02-02T04:14:29.294Z,77.48
2018-02-02T04:16:56.822Z,76.66
2018-02-02T04:19:24.267Z,76.99
2018-02-02T04:21:51.781Z,76.99
2018-02-02T04:24:19.287Z,75.98
2018-02-02T04:26:46.844Z,75.97
2018-02-02T04:29:14.325Z,76.42
2018-02-02T04:31:41.774Z,76.73
2018-02-02T04:34:09.436Z,76.39
2018-02-02T04:36:36.861Z,76.38
2018-02-02T04:39:04.578Z,76.17
2018-02-02T04:41:32.125Z,76.62
2018-02-02T04:43:59.576Z,77.08
2018-02-02T04:46:27.246Z,76.30
2018-02-02T04:48:54.726Z,76.10
2018-02-02T04:51:22.222Z,76.22
2018-02-02T04:53:49.752Z,75.91
2018-02-02T04:56:17.201Z,75.89
2018-02-02T04:58:44.678Z,75.63
2018-02-02T05:01:12.120Z,76.08
2018-02-02T05:03:39.629Z,76.29
2018-02-02T05:06:07.050Z,76.00
2018-02-02T05:08:34.476Z,75.76
2018-02-02T05:11:01.933Z,75.95
2018-02-02T05:13:30.085Z,75.10
2018-02-02T05:15:58.109Z,75.64
2018-02-02T05:18:25.604Z,75.58
2018-02-02T05:20:53.061Z,75.18
2018-02-02T05:23:20.497Z,75.98
2018-02-02T05:25:48.026Z,75.46
2018-02-02T05:28:15.464Z,75.26
2018-02-02T05:30:42.896Z,75.11
2018-02-02T05:33:10.403Z,76.14
2018-02-02T05:35:38.193Z,75.69
2018-02-02T05:38:05.756Z,75.54
2018-02-02T05:40:33.272Z,75.96
2018-02-02T05:43:00.692Z,76.14
2018-02-02T05:45:30.213Z,75.92
2018-02-02T05:47:59.726Z,75.51
2018-02-02T05:50:27.260Z,75.49
2018-02-02T05:52:54.672Z,75.74
2018-02-02T05:55:22.172Z,75.20
2018-02-02T05:57:49.590Z,75.58
2018-02-02T06:00:17.036Z,75.25
2018-02-02T06:02:45.384Z,75.67
2018-02-02T06:05:12.825Z,75.97
2018-02-02T06:07:40.611Z,75.60
2018-02-02T06:10:08.020Z,76.48
2018-02-02T06:12:36.468Z,76.50
2018-02-02T06:15:03.946Z,76.17
2018-02-02T06:17:31.484Z,75.53
2018-02-02T06:19:59.224Z,75.99
2018-02-02T06:22:26.782Z,76.10
2018-02-02T06:24:54.196Z,75.97
2018-02-02T06:27:21.684Z,75.96
2018-02-02T06:29:49.176Z,75.99
2018-02-02T06:32:16.596Z,76.56
2018-02-02T06:34:44.365Z,76.20
2018-02-02T06:37:11.805Z,76.31
2018-02-02T06:39:39.227Z,75.78
2018-02-02T06:42:06.668Z,76.24
2018-02-02T06:44:34.077Z,76.04
2018-02-02T06:47:01.514Z,75.78
2018-02-02T06:49:29.374Z,76.24
2018-02-02T06:51:57.094Z,76.01
2018-02-02T06:54:24.540Z,76.29
2018-02-02T06:56:56.222Z,76.60
2018-02-02T06:59:23.956Z,76.16
2018-02-02T07:01:51.369Z,75.84
2018-02-02T07:04:18.825Z,76.23
2018-02-02T07:06:46.282Z,75.98
2018-02-02T07:09:13.764Z,75.79
2018-02-02T07:11:41.198Z,76.59
2018-02-02T07:14:08.628Z,76.35
2018-02-02T07:16:36.085Z,76.46
2018-02-02T07:19:03.530Z,75.77
2018-02-02T07:21:31.004Z,75.78
2018-02-02T07:23:58.457Z,76.34
2018-02-02T07:26:25.882Z,75.05
2018-02-02T07:28:53.308Z,75.23
2018-02-02T07:31:20.724Z,76.35
2018-02-02T07:33:48.177Z,75.77
2018-02-02T07:36:15.690Z,76.47
2018-02-02T07:38:43.118Z,76.44
2018-02-02T07:41:10.564Z,76.08
2018-02-02T07:43:38.005Z,76.68
2018-02-02T07:46:05.470Z,77.34
2018-02-02T07:48:33.281Z,76.12
2018-02-02T07:51:00.721Z,76.57
2018-02-02T07:53:28.177Z,76.58
2018-02-02T07:55:55.600Z,76.83
2018-02-02T07:58:23.018Z,77.11
2018-02-02T08:00:56.101Z,77.17
2018-02-02T08:03:23.516Z,76.24
2018-02-02T08:05:51.018Z,77.09
2018-02-02T08:08:18.447Z,77.46
2018-02-02T08:10:45.884Z,77.07
2018-02-02T08:13:13.312Z,77.14
2018-02-02T08:15:40.744Z,77.25
2018-02-02T08:18:08.173Z,77.21
2018-02-02T08:20:35.608Z,76.96
2018-02-02T08:23:03.093Z,76.95
2018-02-02T08:25:30.548Z,77.47
2018-02-02T08:27:57.988Z,77.51
2018-02-02T08:30:25.409Z,77.45
2018-02-02T08:32:52.853Z,76.84
2018-02-02T08:35:20.279Z,77.96
2018-02-02T08:37:47.736Z,77.25
2018-02-02T08:40:15.165Z,77.45
2018-02-02T08:42:42.622Z,76.73
2018-02-02T08:45:10.106Z,77.43
2018-02-02T08:47:37.540Z,77.28
2018-02-02T08:50:04.968Z,76.69
2018-02-02T08:52:34.637Z,76.34
2018-02-02T08:55:02.076Z,76.65
2018-02-02T08:57:29.668Z,76.60
2018-02-02T08:59:57.082Z,76.85
2018-02-02T09:02:24.508Z,76.78
2018-02-02T09:04:52.012Z,77.20
2018-02-02T09:07:19.493Z,77.37
2018-02-02T09:09:46.980Z,77.48
2018-02-02T09:12:14.618Z,77.60
2018-02-02T09:14:42.113Z,77.24
2018-02-02T09:17:09.545Z,76.71
2018-02-02T09:19:36.998Z,75.41
2018-02-02T09:22:03.897Z,75.70
2018-02-02T09:24:31.356Z,75.42
2018-02-02T09:26:58.225Z,75.81
2018-02-02T09:29:25.670Z,75.29
2018-02-02T09:31:53.166Z,75.67
2018-02-02T09:34:20.621Z,75.28
2018-02-02T09:36:48.088Z,75.39
2018-02-02T09:39:15.585Z,74.80
2018-02-02T09:41:43.190Z,74.56
2018-02-02T09:44:10.640Z,74.29
2018-02-02T09:46:38.142Z,74.66
2018-02-02T09:49:05.598Z,74.02
2018-02-02T09:51:33.537Z,73.33
2018-02-02T09:54:00.997Z,73.25
2018-02-02T09:56:28.454Z,73.84
2018-02-02T09:58:55.882Z,73.70
2018-02-02T10:01:23.353Z,74.16
2018-02-02T10:03:50.811Z,72.89
2018-02-02T10:06:18.265Z,72.94
2018-02-02T10:08:45.698Z,73.49
2018-02-02T10:11:13.131Z,73.70
2018-02-02T10:13:40.569Z,74.08
2018-02-02T10:16:08.003Z,74.04
2018-02-02T10:18:35.677Z,74.66
2018-02-02T10:21:04.805Z,74.26
2018-02-02T10:23:32.245Z,73.99
2018-02-02T10:25:59.695Z,74.43
2018-02-02T10:28:27.147Z,74.36
2018-02-02T10:30:54.712Z,74.87
2018-02-02T10:33:22.273Z,73.96
2018-02-02T10:35:49.699Z,75.14
2018-02-02T10:38:17.152Z,75.34
2018-02-02T10:40:44.693Z,74.69
2018-02-02T10:43:14.825Z,74.55
2018-02-02T10:45:42.240Z,74.21
2018-02-02T10:48:09.677Z,75.20
2018-02-02T10:50:37.116Z,74.69
2018-02-02T10:53:04.751Z,74.62
2018-02-02T10:55:32.216Z,74.20
2018-02-02T10:57:59.673Z,74.15
2018-02-02T11:00:27.105Z,73.92
2018-02-02T11:03:00.156Z,74.21
2018-02-02T11:05:27.647Z,73.76
2018-02-02T11:07:55.225Z,73.51
2018-02-02T11:10:22.657Z,74.44
2018-02-02T11:12:50.136Z,73.54
2018-02-02T11:15:17.586Z,72.94
2018-02-02T11:17:45.105Z,73.25
2018-02-02T11:20:12.697Z,73.46
2018-02-02T11:22:40.281Z,73.30
2018-02-02T11:25:07.797Z,73.40
2018-02-02T11:27:35.441Z,73.79
2018-02-02T11:30:02.928Z,73.19
2018-02-02T11:32:30.521Z,72.77
2018-02-02T11:34:57.943Z,72.26
2018-02-02T11:37:25.425Z,72.15
2018-02-02T11:39:52.857Z,72.08
2018-02-02T11:42:20.409Z,70.96
2018-02-02T11:44:47.852Z,71.76
2018-02-02T11:47:15.374Z,72.67
2018-02-02T11:49:42.805Z,72.90
2018-02-02T11:52:10.398Z,72.43
2018-02-02T11:54:37.965Z,72.01
2018-02-02T11:57:05.405Z,72.35
2018-02-02T11:59:32.871Z,71.99
2018-02-02T12:02:00.409Z,71.88
2018-02-02T12:04:27.865Z,70.98
2018-02-02T12:06:55.407Z,73.78
2018-02-02T12:09:22.847Z,74.24
2018-02-02T12:11:50.736Z,74.91
2018-02-02T12:14:18.204Z,74.79
2018-02-02T12:16:45.717Z,77.50
2018-02-02T12:19:13.288Z,76.32
2018-02-02T12:21:40.789Z,74.31
2018-02-02T12:24:23.904Z,73.32
2018-02-02T12:27:07.441Z,74.53
2018-02-02T12:32:48.605Z,80.69
2018-02-02T12:35:18.004Z,75.85
2018-02-02T12:37:45.899Z,80.25
2018-02-02T12:40:13.337Z,84.74
2018-02-02T12:42:40.792Z,84.62
2018-02-02T12:45:08.265Z,82.57
2018-02-02T12:47:35.939Z,81.03
2018-02-02T12:50:07.244Z,85.35
2018-02-02T12:52:34.777Z,82.50
2018-02-02T12:55:02.227Z,81.94
2018-02-02T12:57:29.738Z,82.49
2018-02-02T12:59:57.240Z,81.18
2018-02-02T13:02:25.031Z,81.06
2018-02-02T13:04:52.518Z,85.13
2018-02-02T13:07:20.065Z,87.66
2018-02-02T13:09:47.669Z,85.39
2018-02-02T13:12:16.102Z,91.48
2018-02-02T13:14:43.678Z,88.30
2018-02-02T13:17:11.153Z,95.54
2018-02-02T13:19:38.628Z,90.14
2018-02-02T13:22:07.115Z,100.00
2018-02-02T13:24:34.763Z,100.00
2018-02-02T13:27:02.262Z,100.00
2018-02-02T13:29:30.116Z,100.00
2018-02-02T13:31:57.555Z,100.00
2018-02-02T13:34:25.039Z,100.00
2018-02-02T13:36:52.499Z,100.00
2018-02-02T13:39:20.304Z,100.00
2018-02-02T13:41:47.782Z,100.00
2018-02-02T13:44:15.326Z,100.00
2018-02-02T13:46:43.750Z,100.00
2018-02-02T13:49:11.221Z,100.00
2018-02-02T13:51:38.782Z,100.00
2018-02-02T13:54:06.330Z,100.00
2018-02-02T13:56:34.956Z,100.00
2018-02-02T13:59:02.504Z,100.00
2018-02-02T14:01:30.128Z,100.00
2018-02-02T14:03:57.712Z,100.00
2018-02-02T14:06:27.198Z,100.00
2018-02-02T14:08:55.385Z,100.00
2018-02-02T14:11:22.911Z,80.89
2018-02-02T14:13:50.398Z,100.00
2018-02-02T14:16:17.844Z,100.00
2018-02-02T14:18:45.372Z,100.00
2018-02-02T14:21:13.029Z,100.00
2018-02-02T14:23:40.888Z,100.00
2018-02-02T14:26:08.380Z,100.00
2018-02-02T14:28:35.848Z,100.00
2018-02-02T14:31:04.790Z,100.00
2018-02-02T14:33:52.344Z,100.00
2018-02-02T14:36:20.078Z,100.00
2018-02-02T14:38:47.592Z,100.00
2018-02-02T14:41:15.214Z,100.00
2018-02-02T14:43:42.692Z,100.00
2018-02-02T14:46:10.432Z,100.00
2018-02-02T14:48:37.932Z,100.00
2018-02-02T14:51:07.136Z,100.00
2018-02-02T14:53:34.995Z,100.00
2018-02-02T14:56:02.493Z,100.00
2018-02-02T14:58:30.013Z,100.00
2018-02-02T15:00:57.466Z,100.00
2018-02-02T15:03:24.954Z,100.00
2018-02-02T15:05:52.423Z,100.00
2018-02-02T15:08:19.868Z,100.00
2018-02-02T15:10:47.337Z,100.00
2018-02-02T15:13:14.780Z,100.00
2018-02-02T15:15:42.252Z,100.00
2018-02-02T15:18:09.789Z,100.00
2018-02-02T15:20:37.263Z,100.00
2018-02-02T15:23:07.658Z,100.00
2018-02-02T15:25:35.244Z,100.00
2018-02-02T15:28:03.123Z,100.00
2018-02-02T15:30:30.634Z,100.00
2018-02-02T15:32:58.255Z,100.00
2018-02-02T15:35:25.720Z,100.00
2018-02-02T15:37:53.194Z,100.00
2018-02-02T15:40:20.663Z,100.00
2018-02-02T15:42:53.348Z,100.00
2018-02-02T15:45:25.019Z,100.00
2018-02-02T15:47:52.789Z,100.00
2018-02-02T15:50:20.677Z,100.00
2018-02-02T15:52:48.253Z,100.00
2018-02-02T15:55:15.695Z,100.00
2018-02-02T15:57:43.165Z,100.00
2018-02-02T16:00:10.624Z,100.00
2018-02-02T16:02:38.112Z,100.00
2018-02-02T16:05:05.576Z,100.00
2018-02-02T16:07:33.048Z,100.00
2018-02-02T16:10:00.529Z,100.00
2018-02-02T16:12:28.082Z,100.00
2018-02-02T16:14:55.539Z,100.00
2018-02-02T16:17:23.003Z,100.00
2018-02-02T16:19:50.485Z,100.00
2018-02-02T16:22:18.008Z,100.00
2018-02-02T16:24:45.469Z,100.00
2018-02-02T16:27:12.960Z,100.00
2018-02-02T16:29:40.721Z,100.00
2018-02-02T16:32:11.520Z,100.00
2018-02-02T16:34:41.086Z,100.00
2018-02-02T16:37:08.665Z,100.00
2018-02-02T16:39:36.709Z,100.00
2018-02-02T16:42:04.320Z,100.00
2018-02-02T16:44:31.780Z,100.00
2018-02-02T16:46:59.251Z,100.00
2018-02-02T16:49:26.971Z,100.00
2018-02-02T16:51:54.586Z,100.00
2018-02-02T16:54:22.080Z,100.00
2018-02-02T16:56:49.548Z,100.00
2018-02-02T16:59:17.368Z,100.00
2018-02-02T17:01:44.833Z,100.00
2018-02-02T17:04:12.305Z,100.00
2018-02-02T17:06:40.106Z,100.00
2018-02-02T17:09:09.572Z,100.00
2018-02-02T17:11:40.692Z,100.00
2018-02-02T17:14:08.179Z,100.00
2018-02-02T17:16:41.158Z,100.00
2018-02-02T17:19:08.652Z,100.00
2018-02-02T17:21:40.053Z,100.00
2018-02-02T17:24:09.484Z,100.00
2018-02-02T17:26:38.990Z,100.00
2018-02-02T17:29:06.585Z,100.00
2018-02-02T17:31:34.091Z,100.00
2018-02-02T17:34:01.566Z,100.00
2018-02-02T17:36:29.017Z,100.00
2018-02-02T17:39:01.965Z,100.00
2018-02-02T17:41:29.418Z,100.00
2018-02-02T17:43:59.028Z,100.00
2018-02-02T17:46:26.495Z,100.00
2018-02-02T17:48:59.703Z,100.00
2018-02-02T17:51:29.464Z,100.00
2018-02-02T17:53:57.012Z,100.00
2018-02-02T17:56:24.593Z,100.00
2018-02-02T17:58:52.109Z,100.00
2018-02-02T18:01:25.561Z,100.00
2018-02-02T18:03:53.052Z,100.00
2018-02-02T18:06:20.594Z,100.00
2018-02-02T18:08:48.063Z,100.00
2018-02-02T18:11:15.547Z,100.00
2018-02-02T18:13:43.769Z,100.00
2018-02-02T18:16:11.269Z,100.00
2018-02-02T18:18:38.732Z,100.00
2018-02-02T18:21:07.928Z,100.00
2018-02-02T18:23:37.797Z,100.00
2018-02-02T18:26:05.945Z,100.00
2018-02-02T18:28:33.480Z,100.00
2018-02-02T18:31:02.142Z,100.00
2018-02-02T18:33:29.859Z,100.00
2018-02-02T18:35:57.317Z,100.00
2018-02-02T18:38:24.785Z,100.00
2018-02-02T18:40:52.555Z,100.00
2018-02-02T18:43:20.189Z,100.00
2018-02-02T18:45:47.738Z,100.00
2018-02-02T18:48:15.256Z,100.00
2018-02-02T18:50:42.749Z,100.00
2018-02-02T18:53:10.220Z,100.00
2018-02-02T18:55:37.676Z,100.00
2018-02-02T18:58:06.085Z,100.00
2018-02-02T19:00:33.535Z,100.00
2018-02-02T19:03:02.686Z,100.00
2018-02-02T19:05:30.376Z,100.00
2018-02-02T19:07:58.160Z,100.00
2018-02-02T19:10:25.698Z,100.00
2018-02-02T19:12:53.247Z,100.00
2018-02-02T19:15:20.694Z,100.00
2018-02-02T19:17:48.156Z,100.00
2018-02-02T19:20:16.169Z,100.00
2018-02-02T19:22:43.660Z,100.00
2018-02-02T19:25:11.194Z,100.00
2018-02-02T19:27:38.640Z,100.00
2018-02-02T19:30:06.197Z,100.00
2018-02-02T19:32:33.759Z,100.00
2018-02-02T19:35:01.216Z,100.00
2018-02-02T19:37:28.675Z,100.00
2018-02-02T19:39:57.169Z,100.00
2018-02-02T19:42:24.645Z,100.00
2018-02-02T19:44:52.842Z,100.00
2018-02-02T19:47:20.320Z,100.00
2018-02-02T19:49:47.847Z,100.00
2018-02-02T19:52:15.978Z,100.00
2018-02-02T19:54:43.488Z,100.00
2018-02-02T19:57:15.484Z,100.00
2018-02-02T19:59:42.967Z,100.00
2018-02-02T20:02:10.416Z,100.00
2018-02-02T20:04:37.882Z,100.00
2018-02-02T20:07:05.389Z,100.00
2018-02-02T20:09:32.876Z,100.00
2018-02-02T20:12:00.340Z,100.00
2018-02-02T20:14:27.801Z,100.00
2018-02-02T20:16:55.297Z,100.00
2018-02-02T20:19:22.801Z,100.00
2018-02-02T20:21:51.264Z,100.00
2018-02-02T20:24:19.004Z,100.00
2018-02-02T20:26:46.489Z,100.00
2018-02-02T20:29:14.003Z,100.00
2018-02-02T20:31:41.443Z,100.00
2018-02-02T20:34:08.901Z,100.00
2018-02-02T20:36:36.438Z,100.00
2018-02-02T20:39:03.938Z,100.00
2018-02-02T20:41:31.396Z,100.00
2018-02-02T20:43:58.998Z,100.00
2018-02-02T20:46:26.452Z,100.00
2018-02-02T20:48:54.846Z,100.00
2018-02-02T20:51:22.301Z,100.00
2018-02-02T20:53:49.808Z,100.00
2018-02-02T20:56:17.285Z,100.00
2018-02-02T20:58:44.746Z,100.00
2018-02-02T21:01:12.190Z,100.00
2018-02-02T21:03:39.644Z,100.00
2018-02-02T21:06:07.090Z,100.00
2018-02-02T21:08:34.595Z,100.00
2018-02-02T21:11:02.072Z,100.00
2018-02-02T21:13:29.548Z,100.00
2018-02-02T21:15:57.038Z,100.00
2018-02-02T21:18:24.512Z,100.00
2018-02-02T21:20:51.948Z,100.00
2018-02-02T21:23:19.426Z,100.00
2018-02-02T21:25:46.881Z,100.00
2018-02-02T21:28:14.411Z,100.00
2018-02-02T21:30:41.859Z,100.00
2018-02-02T21:33:09.353Z,100.00
2018-02-02T21:35:37.088Z,100.00
2018-02-02T21:38:04.648Z,100.00
2018-02-02T21:40:32.138Z,100.00
2018-02-02T21:42:59.663Z,100.00
2018-02-02T21:45:27.160Z,100.00
2018-02-02T21:47:54.625Z,100.00
2018-02-02T21:50:22.080Z,100.00
2018-02-02T21:52:49.538Z,100.00
2018-02-02T21:55:17.009Z,100.00
2018-02-02T21:57:44.460Z,100.00
2018-02-02T22:00:11.993Z,100.00
2018-02-02T22:02:39.457Z,100.00
2018-02-02T22:05:07.428Z,100.00
2018-02-02T22:07:34.899Z,100.00
2018-02-02T22:10:02.394Z,100.00
2018-02-02T22:12:29.849Z,100.00
2018-02-02T22:14:57.295Z,100.00
2018-02-02T22:17:24.785Z,100.00
2018-02-02T22:19:52.240Z,100.00
2018-02-02T22:22:19.814Z,100.00
2018-02-02T22:24:47.273Z,100.00
2018-02-02T22:27:14.794Z,100.00
2018-02-02T22:29:42.268Z,100.00
2018-02-02T22:32:09.779Z,100.00
2018-02-02T22:34:38.506Z,100.00
2018-02-02T22:37:07.019Z,100.00
2018-02-02T22:39:34.556Z,100.00
2018-02-02T22:42:02.026Z,100.00
2018-02-02T22:44:29.724Z,100.00
2018-02-02T22:46:57.221Z,100.00
2018-02-02T22:49:24.665Z,100.00
2018-02-02T22:51:52.173Z,100.00
2018-02-02T22:54:19.629Z,100.00
2018-02-02T22:56:47.114Z,100.00
2018-02-02T22:59:14.665Z,100.00
2018-02-02T23:01:42.125Z,100.00
2018-02-02T23:04:09.583Z,100.00
2018-02-02T23:06:37.119Z,100.00
2018-02-02T23:09:04.592Z,100.00
2018-02-02T23:11:32.341Z,100.00
2018-02-02T23:14:00.921Z,100.00
2018-02-02T23:16:28.528Z,100.00
2018-02-02T23:18:55.996Z,100.00
2018-02-02T23:21:23.447Z,100.00
2018-02-02T23:23:51.381Z,100.00
2018-02-02T23:26:18.820Z,100.00
2018-02-02T23:28:46.310Z,100.00
2018-02-02T23:31:13.755Z,100.00
2018-02-02T23:33:41.221Z,100.00
2018-02-02T23:36:08.757Z,100.00
2018-02-02T23:38:37.141Z,100.00
2018-02-02T23:41:04.593Z,100.00
2018-02-02T23:43:32.049Z,100.00
2018-02-02T23:45:59.573Z,100.00
2018-02-02T23:48:27.089Z,100.00
2018-02-02T23:50:54.558Z,100.00
2018-02-02T23:53:22.009Z,100.00
2018-02-02T23:55:49.472Z,100.00
2018-02-02T23:58:16.935Z,100.00
